createdAt,value
2024-01-20T00:10:45.036Z,220.0155
2024-01-20T00:25:47.208Z,64.65762
2024-01-20T00:40:49.361Z,11.67429
2024-01-20T00:55:51.414Z,0.89802
2024-01-20T01:10:53.450Z,0
2024-01-20T01:25:55.664Z,0
2024-01-20T01:40:57.837Z,0
2024-01-20T01:55:59.852Z,0
2024-01-20T02:11:01.970Z,0
2024-01-20T02:26:04.026Z,0
2024-01-20T02:41:06.139Z,0
2024-01-20T02:56:08.417Z,0
2024-01-20T03:11:10.495Z,0
2024-01-20T03:26:12.704Z,0
2024-01-20T03:41:14.794Z,0
2024-01-20T03:56:17.032Z,0
2024-01-20T04:11:19.019Z,0
2024-01-20T04:26:20.964Z,0
2024-01-20T04:41:23.051Z,0
2024-01-20T04:56:25.040Z,0
2024-01-20T05:11:27.120Z,0
2024-01-20T05:26:29.883Z,0
2024-01-20T05:41:32.631Z,0
2024-01-20T05:56:34.673Z,0
2024-01-20T06:11:36.646Z,0
2024-01-20T06:26:38.674Z,0
2024-01-20T06:41:40.798Z,0
2024-01-20T06:56:42.861Z,0
2024-01-20T07:11:44.863Z,0
2024-01-20T07:26:46.875Z,0
2024-01-20T07:41:48.898Z,0
2024-01-20T07:56:50.907Z,0
2024-01-20T08:11:53.052Z,0
2024-01-20T08:26:55.079Z,0
2024-01-20T08:41:59.007Z,0
2024-01-20T08:57:01.132Z,0
2024-01-20T09:12:03.393Z,0
2024-01-20T09:27:05.433Z,0
2024-01-20T09:42:07.594Z,0
2024-01-20T09:57:09.805Z,0
2024-01-20T10:12:11.905Z,0
2024-01-20T10:27:13.966Z,0
2024-01-20T10:42:16.082Z,0
2024-01-20T10:57:18.370Z,0
2024-01-20T11:12:20.408Z,0
2024-01-20T11:27:22.630Z,0
2024-01-20T11:42:24.636Z,0
2024-01-20T11:57:26.784Z,0
2024-01-20T12:12:28.874Z,0
2024-01-20T12:27:30.967Z,0
2024-01-20T12:42:33.274Z,0
2024-01-20T12:57:35.482Z,0
2024-01-20T13:12:37.518Z,0
2024-01-20T13:27:40.150Z,0
2024-01-20T13:42:43.736Z,0
2024-01-20T13:57:46.275Z,0
2024-01-20T14:12:48.355Z,0
2024-01-20T14:27:50.366Z,0
2024-01-20T14:42:52.598Z,0
2024-01-20T14:57:54.679Z,0
2024-01-20T15:12:56.735Z,1.79604
2024-01-20T15:27:58.774Z,22.45056
2024-01-20T15:43:00.741Z,83.51609
2024-01-20T15:58:02.658Z,193.97285
2024-01-20T16:13:12.718Z,405.00815
2024-01-20T16:28:16.335Z,492.1163
2024-01-20T16:43:18.306Z,675.31293
2024-01-20T16:58:20.465Z,1171.91931
2024-01-20T17:13:22.460Z,1587.70374
2024-01-20T17:28:24.506Z,2182.19458
2024-01-20T17:43:26.682Z,2328.57227
2024-01-20T17:58:28.714Z,2147.17163
2024-01-20T18:13:31.087Z,2924.85913
2024-01-20T18:28:33.296Z,2969.76025
2024-01-20T18:43:35.592Z,2666.22876
2024-01-20T18:58:37.600Z,3238.26904
2024-01-20T19:13:39.761Z,5020.84375
2024-01-20T19:28:41.777Z,6026.62891
2024-01-20T19:43:43.844Z,3560.65918
2024-01-20T19:58:45.995Z,3745.65186
2024-01-20T20:13:47.998Z,3551.67896
2024-01-20T20:28:50.114Z,4029.42676
2024-01-20T20:43:52.300Z,4724.49609
2024-01-20T20:58:54.478Z,5644.96924
2024-01-20T21:13:56.605Z,5035.21191
2024-01-20T21:28:58.756Z,5396.2168
2024-01-20T21:44:01.662Z,3824.67773
2024-01-20T21:59:03.821Z,3196.95996
2024-01-20T22:14:05.820Z,2148.06982
2024-01-20T22:29:15.279Z,1979.24158
2024-01-20T22:44:26.143Z,1185.38965
2024-01-20T22:59:28.140Z,1104.56763
2024-01-20T23:14:30.177Z,724.70416
2024-01-20T23:29:32.214Z,522.64911
2024-01-20T23:44:34.225Z,167.03218
2024-01-20T23:59:36.236Z,126.62117
